Time,TemperatureF,DewpointF,PressureIn,WindDirection,WindDirectionDegrees,WindSpeedMPH,WindSpeedGustMPH,Humidity,HourlyPrecipIn,Conditions,Clouds,dailyrainin,SoftwareType,DateUTC
2013-08-18 21:11:00,74.5,58.3,25.35,ENE,63,0.0,1.0,57,0.00,,,0.00,VWS V13.01,2013-08-19 01:11:00,
2013-08-18 21:12:00,70.0,61.7,24.02,East,88,0.0,1.0,75,0.00,,,0.00,VWS V13.01,2013-08-19 01:12:00,
2013-08-18 21:16:00,70.0,61.7,24.02,East,88,0.0,1.0,75,0.00,,,0.00,VWS V13.01,2013-08-19 01:16:00,
2013-08-18 21:17:00,70.0,61.7,24.02,East,88,0.0,1.0,75,0.00,,,0.00,VWS V13.01,2013-08-19 01:17:00,
2013-08-18 21:22:00,69.9,61.6,24.02,East,88,0.0,1.0,75,0.00,,,0.00,VWS V13.01,2013-08-19 01:22:00,
2013-08-18 21:27:00,69.9,61.6,24.02,East,88,0.0,1.0,75,0.00,,,0.00,VWS V13.01,2013-08-19 01:27:00,
2013-08-18 21:28:00,69.9,61.6,24.02,East,88,0.0,1.0,75,0.00,,,0.00,VWS V13.01,2013-08-19 01:28:00,
2013-08-18 21:32:00,69.7,61.4,24.02,East,88,0.0,1.0,75,0.00,,,0.00,VWS V13.01,2013-08-19 01:32:00,
2013-08-18 21:33:00,69.7,61.4,24.02,East,88,0.0,1.0,75,0.00,,,0.00,VWS V13.01,2013-08-19 01:33:00,
2013-08-18 21:37:00,69.6,61.3,24.02,East,87,0.0,1.0,75,0.00,,,0.00,VWS V13.01,2013-08-19 01:37:00,
2013-08-18 21:38:00,69.5,61.2,24.02,East,88,0.0,1.0,75,0.00,,,0.00,VWS V13.01,2013-08-19 01:38:00,
2013-08-18 21:42:00,69.5,61.2,24.02,East,88,0.0,1.0,75,0.00,,,0.00,VWS V13.01,2013-08-19 01:42:00,
2013-08-18 21:43:00,69.4,61.1,24.02,East,88,0.0,1.0,75,0.00,,,0.00,VWS V13.01,2013-08-19 01:43:00,
2013-08-18 21:47:00,69.4,61.1,24.07,East,88,0.0,1.0,75,0.00,,,0.00,VWS V13.01,2013-08-19 01:47:00,
2013-08-18 21:48:00,69.3,61.4,24.06,East,88,0.0,1.0,76,0.00,,,0.00,VWS V13.01,2013-08-19 01:48:00,
2013-08-18 21:52:00,69.2,61.3,24.06,East,88,0.0,1.0,76,0.00,,,0.00,VWS V13.01,2013-08-19 01:52:00,
2013-08-18 21:53:00,69.1,61.2,24.06,East,88,0.0,1.0,76,0.00,,,0.00,VWS V13.01,2013-08-19 01:53:00,
2013-08-18 21:54:00,69.1,61.2,24.06,East,88,0.0,1.0,76,0.00,,,0.00,VWS V13.01,2013-08-19 01:54:00,
2013-08-18 21:57:00,69.0,61.5,23.05,East,88,0.0,1.0,77,0.00,,,0.00,VWS V13.01,2013-08-19 01:57:00,
2013-08-18 21:58:00,69.0,61.5,23.05,East,88,0.0,1.0,77,0.00,,,0.00,VWS V13.01,2013-08-19 01:58:00,
2013-08-18 21:59:00,69.0,61.5,23.05,East,88,0.0,1.0,77,0.00,,,0.00,VWS V13.01,2013-08-19 01:59:00,
2013-08-18 22:02:00,69.0,61.5,23.05,East,88,0.0,1.0,77,0.00,,,0.00,VWS V13.01,2013-08-19 02:02:00,
2013-08-18 22:03:00,69.0,61.5,23.05,East,88,0.0,1.0,77,0.00,,,0.00,VWS V13.01,2013-08-19 02:03:00,
2013-08-18 22:04:00,69.0,61.5,23.05,East,87,0.0,1.0,77,0.00,,,0.00,VWS V13.01,2013-08-19 02:04:00,
2013-08-18 22:07:00,68.9,61.4,23.05,East,88,0.0,0.0,77,0.00,,,0.00,VWS V13.01,2013-08-19 02:07:00,
2013-08-18 22:08:00,68.9,61.4,23.05,East,88,0.0,0.0,77,0.00,,,0.00,VWS V13.01,2013-08-19 02:08:00,
2013-08-18 22:09:00,68.9,61.4,23.05,East,87,0.0,0.0,77,0.00,,,0.00,VWS V13.01,2013-08-19 02:09:00,
2013-08-18 22:13:00,68.8,61.7,23.05,East,88,0.0,0.0,78,0.00,,,0.00,VWS V13.01,2013-08-19 02:13:00,
2013-08-18 22:14:00,68.7,61.6,23.05,East,88,0.0,0.0,78,0.00,,,0.00,VWS V13.01,2013-08-19 02:14:00,
2013-08-18 22:18:00,68.6,61.8,23.05,East,88,0.0,0.0,79,0.00,,,0.00,VWS V13.01,2013-08-19 02:18:00,
2013-08-18 22:19:00,68.6,61.8,23.05,East,88,0.0,0.0,79,0.00,,,0.00,VWS V13.01,2013-08-19 02:19:00,
2013-08-18 22:23:00,68.5,61.7,23.05,East,88,0.0,0.0,79,0.00,,,0.00,VWS V13.01,2013-08-19 02:23:00,
2013-08-18 22:24:00,68.5,61.7,23.05,East,88,0.0,0.0,79,0.00,,,0.00,VWS V13.01,2013-08-19 02:24:00,
2013-08-18 22:28:00,68.4,62.0,23.05,East,88,0.0,0.0,80,0.00,,,0.00,VWS V13.01,2013-08-19 02:28:00,
2013-08-18 22:29:00,68.4,62.0,23.05,East,88,0.0,0.0,80,0.00,,,0.00,VWS V13.01,2013-08-19 02:29:00,
2013-08-18 22:34:00,68.3,62.2,23.05,East,88,0.0,0.0,81,0.00,,,0.00,VWS V13.01,2013-08-19 02:34:00,
2013-08-18 22:35:00,68.2,62.2,23.05,East,88,0.0,0.0,81,0.00,,,0.00,VWS V13.01,2013-08-19 02:35:00,
2013-08-18 22:39:00,68.1,62.1,23.05,East,88,0.0,0.0,81,0.00,,,0.00,VWS V13.01,2013-08-19 02:39:00,
2013-08-18 22:40:00,68.1,62.1,23.05,East,88,0.0,0.0,81,0.00,,,0.00,VWS V13.01,2013-08-19 02:40:00,
2013-08-18 22:44:00,68.0,62.0,23.05,East,87,0.0,0.0,81,0.00,,,0.00,VWS V13.01,2013-08-19 02:44:00,
2013-08-18 22:45:00,68.0,62.0,23.05,East,88,0.0,0.0,81,0.00,,,0.00,VWS V13.01,2013-08-19 02:45:00,
2013-08-18 22:49:00,68.0,62.0,23.05,East,88,0.0,0.0,81,0.00,,,0.00,VWS V13.01,2013-08-19 02:49:00,
2013-08-18 22:50:00,68.0,62.0,23.05,East,88,0.0,0.0,81,0.00,,,0.00,VWS V13.01,2013-08-19 02:50:00,
2013-08-18 22:54:00,68.0,62.0,23.05,East,88,0.0,0.0,81,0.00,,,0.00,VWS V13.01,2013-08-19 02:54:00,
2013-08-18 22:55:00,68.0,62.0,23.05,East,88,0.0,0.0,81,0.00,,,0.00,VWS V13.01,2013-08-19 02:55:00,
2013-08-18 22:59:00,67.9,61.9,23.05,East,88,0.0,0.0,81,0.00,,,0.00,VWS V13.01,2013-08-19 02:59:00,
2013-08-18 23:00:00,67.9,61.9,23.05,East,88,0.0,0.0,81,0.00,,,0.00,VWS V13.01,2013-08-19 03:00:00,
2013-08-18 23:04:00,67.8,61.8,23.05,East,88,0.0,0.0,81,0.00,,,0.00,VWS V13.01,2013-08-19 03:04:00,
2013-08-18 23:05:00,67.7,61.7,23.05,East,88,0.0,0.0,81,0.00,,,0.00,VWS V13.01,2013-08-19 03:05:00,
2013-08-18 23:09:00,67.6,61.6,23.05,East,87,0.0,0.0,81,0.00,,,0.00,VWS V13.01,2013-08-19 03:09:00,
2013-08-18 23:10:00,67.6,61.6,23.05,East,88,0.0,0.0,81,0.00,,,0.00,VWS V13.01,2013-08-19 03:10:00,
2013-08-18 23:11:00,67.5,61.5,23.05,East,88,0.0,0.0,81,0.00,,,0.00,VWS V13.01,2013-08-19 03:11:00,
2013-08-18 23:14:00,67.4,61.7,23.05,East,88,0.0,0.0,82,0.00,,,0.00,VWS V13.01,2013-08-19 03:14:00,
2013-08-18 23:15:00,67.4,61.7,23.05,East,88,0.0,0.0,82,0.00,,,0.00,VWS V13.01,2013-08-19 03:15:00,
2013-08-18 23:16:00,67.3,61.6,23.05,East,88,0.0,0.0,82,0.00,,,0.00,VWS V13.01,2013-08-19 03:16:00,
2013-08-18 23:19:00,67.2,61.5,23.05,East,88,0.0,0.0,82,0.00,,,0.00,VWS V13.01,2013-08-19 03:19:00,
2013-08-18 23:20:00,67.2,61.5,23.05,East,88,0.0,0.0,82,0.00,,,0.00,VWS V13.01,2013-08-19 03:20:00,
2013-08-18 23:21:00,67.2,61.5,23.05,East,88,0.0,0.0,82,0.00,,,0.00,VWS V13.01,2013-08-19 03:21:00,
2013-08-18 23:25:00,67.1,61.4,23.05,East,88,0.0,0.0,82,0.00,,,0.00,VWS V13.01,2013-08-19 03:25:00,
2013-08-18 23:26:00,67.1,61.4,23.05,East,88,0.0,0.0,82,0.00,,,0.00,VWS V13.01,2013-08-19 03:26:00,
2013-08-18 23:30:00,67.2,61.5,23.05,East,88,0.0,0.0,82,0.00,,,0.00,VWS V13.01,2013-08-19 03:30:00,
2013-08-18 23:31:00,67.1,61.4,23.05,East,88,0.0,0.0,82,0.00,,,0.00,VWS V13.01,2013-08-19 03:31:00,
2013-08-18 23:32:00,67.2,61.5,23.05,East,88,0.0,0.0,82,0.00,,,0.00,VWS V13.01,2013-08-19 03:32:00,
2013-08-18 23:35:00,67.3,61.6,23.05,East,88,0.0,0.0,82,0.00,,,0.00,VWS V13.01,2013-08-19 03:35:00,
2013-08-18 23:36:00,67.3,61.6,23.05,East,88,0.0,0.0,82,0.00,,,0.00,VWS V13.01,2013-08-19 03:36:00,
2013-08-18 23:37:00,67.3,61.6,23.05,East,87,0.0,0.0,82,0.00,,,0.00,VWS V13.01,2013-08-19 03:37:00,
2013-08-18 23:40:00,67.3,61.6,23.05,East,88,0.0,0.0,82,0.00,,,0.00,VWS V13.01,2013-08-19 03:40:00,
2013-08-18 23:41:00,67.3,61.6,23.05,East,88,0.0,0.0,82,0.00,,,0.00,VWS V13.01,2013-08-19 03:41:00,
2013-08-18 23:42:00,67.3,61.6,23.05,East,88,0.0,0.0,82,0.00,,,0.00,VWS V13.01,2013-08-19 03:42:00,
2013-08-18 23:45:00,67.2,61.5,23.05,East,88,0.0,0.0,82,0.00,,,0.00,VWS V13.01,2013-08-19 03:45:00,
2013-08-18 23:46:00,67.1,61.4,23.05,East,88,0.0,0.0,82,0.00,,,0.00,VWS V13.01,2013-08-19 03:46:00,
2013-08-18 23:47:00,67.1,61.4,23.05,East,88,0.0,0.0,82,0.00,,,0.00,VWS V13.01,2013-08-19 03:47:00,
2013-08-18 23:50:00,67.0,61.3,23.05,East,87,0.0,0.0,82,0.00,,,0.00,VWS V13.01,2013-08-19 03:50:00,
2013-08-18 23:51:00,66.9,61.2,23.05,East,88,0.0,0.0,82,0.00,,,0.00,VWS V13.01,2013-08-19 03:51:00,
2013-08-18 23:52:00,66.9,61.2,23.05,East,88,0.0,0.0,82,0.00,,,0.00,VWS V13.01,2013-08-19 03:52:00,
2013-08-18 23:55:00,66.9,61.6,23.05,East,88,0.0,0.0,83,0.00,,,0.00,VWS V13.01,2013-08-19 03:55:00,
2013-08-18 23:56:00,66.9,61.6,23.05,East,88,0.0,0.0,83,0.00,,,0.00,VWS V13.01,2013-08-19 03:56:00,
2013-08-18 23:57:00,66.9,61.6,23.05,East,88,0.0,0.0,83,0.00,,,0.00,VWS V13.01,2013-08-19 03:57:00,